createdAt,value
2018-12-18T00:03:51.213Z,68.59
2018-12-18T00:07:57.215Z,68.63
2018-12-18T00:12:01.303Z,67.96
2018-12-18T00:16:05.320Z,68.61
2018-12-18T00:20:09.484Z,68.89
2018-12-18T00:24:13.487Z,68.98
2018-12-18T00:28:17.502Z,68.64
2018-12-18T00:32:21.505Z,68.92
2018-12-18T00:36:25.558Z,68.91
2018-12-18T00:40:29.559Z,69.03
2018-12-18T00:44:33.571Z,68.73
2018-12-18T00:48:37.794Z,68.93
2018-12-18T00:52:41.820Z,69.42
2018-12-18T00:56:45.926Z,69.02
2018-12-18T01:00:49.863Z,69.61
2018-12-18T01:04:54.040Z,69.54
2018-12-18T01:08:58.040Z,69.75
2018-12-18T01:13:01.982Z,69.96
2018-12-18T01:17:05.922Z,70.57
2018-12-18T01:21:09.914Z,69.95
2018-12-18T01:25:13.905Z,70.08
2018-12-18T01:29:17.933Z,70.31
2018-12-18T01:33:21.927Z,70.48
2018-12-18T01:37:25.952Z,70.79
2018-12-18T01:41:30.002Z,70.75
2018-12-18T01:45:34.027Z,71.17
2018-12-18T01:49:38.039Z,70.87
2018-12-18T01:53:41.958Z,70.95
2018-12-18T01:57:45.964Z,71.29
2018-12-18T02:01:49.996Z,71.37
2018-12-18T02:05:54.099Z,71.12
2018-12-18T02:09:58.147Z,70.56
2018-12-18T02:14:02.283Z,70.37
2018-12-18T02:18:06.319Z,69.78
2018-12-18T02:22:10.400Z,70.12
2018-12-18T02:26:14.310Z,70.36
2018-12-18T02:30:18.393Z,70.02
2018-12-18T02:34:22.392Z,70.35
2018-12-18T02:38:26.397Z,70.33
2018-12-18T02:42:30.443Z,70.32
2018-12-18T02:46:34.391Z,70.32
2018-12-18T02:50:38.395Z,70.37
2018-12-18T02:54:42.392Z,69.99
2018-12-18T02:58:46.407Z,70.19
2018-12-18T03:02:50.552Z,70.55
2018-12-18T03:06:54.576Z,70.69
2018-12-18T03:10:58.588Z,70.90
2018-12-18T03:15:02.585Z,70.84
2018-12-18T03:19:06.667Z,71.55
2018-12-18T03:23:10.619Z,71.35
2018-12-18T03:27:14.603Z,71.49
2018-12-18T03:31:18.717Z,70.95
2018-12-18T03:35:22.851Z,71.54
2018-12-18T03:39:26.872Z,71.95
2018-12-18T03:43:30.772Z,72.58
2018-12-18T03:47:34.857Z,73.34
2018-12-18T03:51:38.815Z,73.34
2018-12-18T03:55:42.861Z,74.03
2018-12-18T03:59:46.824Z,73.74
2018-12-18T04:03:50.840Z,73.83
2018-12-18T04:07:54.897Z,73.79
2018-12-18T04:12:04.403Z,74.00
2018-12-18T04:16:08.427Z,73.91
2018-12-18T04:20:12.522Z,74.47
2018-12-18T04:24:16.520Z,74.30
2018-12-18T04:28:20.516Z,74.27
2018-12-18T04:32:24.492Z,74.50
2018-12-18T04:36:30.427Z,74.15
2018-12-18T04:40:34.450Z,73.99
2018-12-18T04:44:39.413Z,73.82
2018-12-18T04:48:43.415Z,74.13
2018-12-18T04:52:47.464Z,74.20
2018-12-18T04:56:51.475Z,73.94
2018-12-18T05:00:55.503Z,74.07
2018-12-18T05:04:59.563Z,74.08
2018-12-18T05:09:05.537Z,74.26
2018-12-18T05:13:10.530Z,74.07
2018-12-18T05:17:14.568Z,74.09
2018-12-18T05:21:18.515Z,73.83
2018-12-18T05:25:22.561Z,73.96
2018-12-18T05:29:26.557Z,73.55
2018-12-18T05:33:30.551Z,73.74
2018-12-18T05:37:34.599Z,73.63
2018-12-18T05:41:38.591Z,74.21
2018-12-18T05:45:44.567Z,73.38
2018-12-18T05:49:48.563Z,73.65
2018-12-18T05:53:52.639Z,72.94
2018-12-18T05:57:56.710Z,72.81
2018-12-18T06:02:00.763Z,72.87
2018-12-18T06:06:05.000Z,72.91
2018-12-18T06:10:09.107Z,72.96
2018-12-18T06:14:13.118Z,73.40
2018-12-18T06:18:17.161Z,73.08
2018-12-18T06:22:21.188Z,73.29
2018-12-18T06:26:25.213Z,73.27
2018-12-18T06:30:29.235Z,73.22
2018-12-18T06:34:34.282Z,73.25
2018-12-18T06:38:38.235Z,73.28
2018-12-18T06:42:42.191Z,73.48
2018-12-18T06:46:46.210Z,73.44
2018-12-18T06:50:50.248Z,73.78
2018-12-18T06:54:54.278Z,73.56
2018-12-18T06:58:58.267Z,73.35
2018-12-18T07:03:02.328Z,73.35
2018-12-18T07:07:06.427Z,73.12
2018-12-18T07:11:10.452Z,73.41
2018-12-18T07:15:14.474Z,73.20
2018-12-18T07:19:18.490Z,72.80
2018-12-18T07:23:22.501Z,72.77
2018-12-18T07:27:26.498Z,73.07
2018-12-18T07:31:30.511Z,73.15
2018-12-18T07:35:34.501Z,72.86
2018-12-18T07:39:38.561Z,72.80
2018-12-18T07:43:42.511Z,72.83
2018-12-18T07:47:46.502Z,72.84
2018-12-18T07:51:50.459Z,72.87
2018-12-18T07:56:00.153Z,72.81
2018-12-18T08:00:00.524Z,72.07
2018-12-18T08:04:04.585Z,72.02
2018-12-18T08:08:08.659Z,71.09
2018-12-18T08:12:12.589Z,71.03
2018-12-18T08:16:16.594Z,70.76
2018-12-18T08:20:20.767Z,70.54
2018-12-18T08:24:24.790Z,71.26
2018-12-18T08:28:28.943Z,70.55
2018-12-18T08:32:33.010Z,71.11
2018-12-18T08:36:36.999Z,71.04
2018-12-18T08:40:41.071Z,70.52
2018-12-18T08:44:44.990Z,70.60
2018-12-18T08:48:49.062Z,70.59
2018-12-18T08:52:53.066Z,70.31
2018-12-18T08:56:57.135Z,70.38
2018-12-18T09:01:01.186Z,69.72
2018-12-18T09:05:07.010Z,69.38
2018-12-18T09:09:11.089Z,69.22
2018-12-18T09:13:15.110Z,68.44
2018-12-18T09:17:24.456Z,67.17
2018-12-18T09:21:28.436Z,66.07
2018-12-18T09:25:32.674Z,65.82
2018-12-18T09:29:36.624Z,64.88
2018-12-18T09:33:40.583Z,65.97
2018-12-18T09:37:44.570Z,66.55
2018-12-18T09:41:48.703Z,66.29
2018-12-18T09:45:52.667Z,65.87
2018-12-18T09:49:56.690Z,65.50
2018-12-18T09:54:00.715Z,65.69
2018-12-18T09:58:08.914Z,65.19
2018-12-18T10:02:13.049Z,64.12
2018-12-18T10:06:17.054Z,66.02
2018-12-18T10:10:21.090Z,65.46
2018-12-18T10:14:25.232Z,65.70
2018-12-18T10:18:29.205Z,65.75
2018-12-18T10:22:33.967Z,64.21
2018-12-18T10:26:38.075Z,66.06
2018-12-18T10:30:42.119Z,66.55
2018-12-18T10:34:46.151Z,66.57
2018-12-18T10:38:50.159Z,65.87
2018-12-18T10:42:54.180Z,65.85
2018-12-18T10:46:58.160Z,66.04
2018-12-18T10:51:02.356Z,65.22
2018-12-18T10:55:07.124Z,65.42
2018-12-18T10:59:11.175Z,65.62
2018-12-18T11:03:15.266Z,63.56
2018-12-18T11:07:20.210Z,64.46
2018-12-18T11:11:24.216Z,64.06
2018-12-18T11:15:28.490Z,63.65
2018-12-18T11:19:32.583Z,63.41
2018-12-18T11:23:36.531Z,63.41
2018-12-18T11:27:40.667Z,62.96
2018-12-18T11:31:45.706Z,63.74
2018-12-18T11:35:49.735Z,62.66
2018-12-18T11:39:53.787Z,62.34
2018-12-18T11:43:57.763Z,61.66
2018-12-18T11:48:01.793Z,62.08
2018-12-18T11:52:05.823Z,62.24
2018-12-18T11:56:10.036Z,61.08
2018-12-18T12:00:17.159Z,61.45
2018-12-18T12:04:21.173Z,61.64
2018-12-18T12:08:25.171Z,61.77
2018-12-18T12:12:29.207Z,61.39
2018-12-18T12:16:33.235Z,60.63
2018-12-18T12:20:37.350Z,60.08
2018-12-18T12:24:42.352Z,60.34
2018-12-18T12:28:47.361Z,59.08
2018-12-18T12:32:51.343Z,57.65
2018-12-18T12:36:55.308Z,59.23
2018-12-18T12:41:00.283Z,59.51
2018-12-18T12:45:04.460Z,60.54
2018-12-18T12:49:10.338Z,59.99
2018-12-18T12:53:14.332Z,59.29
2018-12-18T12:57:18.274Z,60.02
2018-12-18T13:01:22.332Z,60.15
2018-12-18T13:05:26.340Z,59.15
2018-12-18T13:09:30.411Z,58.97
2018-12-18T13:13:34.339Z,59.12
2018-12-18T13:17:38.422Z,59.46
2018-12-18T13:21:42.422Z,59.47
2018-12-18T13:25:46.392Z,61.27
2018-12-18T13:29:50.629Z,59.75
2018-12-18T13:33:54.631Z,59.72
2018-12-18T13:37:58.622Z,59.45
2018-12-18T13:42:02.682Z,59.28
2018-12-18T13:46:06.749Z,59.67
2018-12-18T13:50:10.782Z,59.67
2018-12-18T13:54:14.813Z,59.79
2018-12-18T13:58:18.918Z,61.36
2018-12-18T14:02:23.886Z,61.36
2018-12-18T14:06:27.883Z,61.54
2018-12-18T14:10:31.992Z,61.35
2018-12-18T14:14:36.158Z,62.08
2018-12-18T14:18:40.194Z,62.12
2018-12-18T14:22:44.302Z,62.64
2018-12-18T14:26:48.348Z,62.78
2018-12-18T14:30:53.658Z,62.29
2018-12-18T14:34:57.986Z,62.48
2018-12-18T14:39:02.024Z,62.66
2018-12-18T14:43:06.280Z,62.79
2018-12-18T14:47:10.450Z,63.19
2018-12-18T14:51:15.563Z,64.47
2018-12-18T14:55:19.674Z,64.53
2018-12-18T14:59:24.023Z,65.01
2018-12-18T15:03:28.140Z,65.29
2018-12-18T15:07:33.410Z,65.37
2018-12-18T15:11:37.402Z,65.55
2018-12-18T15:15:41.386Z,66.36
2018-12-18T15:19:45.680Z,66.06
2018-12-18T15:23:49.914Z,66.47
2018-12-18T15:27:53.978Z,66.08
2018-12-18T15:31:58.007Z,65.89
2018-12-18T15:36:02.187Z,66.00
2018-12-18T15:40:06.654Z,66.16
2018-12-18T15:44:10.703Z,66.06
2018-12-18T15:48:14.718Z,65.72
2018-12-18T15:52:18.843Z,66.17
2018-12-18T15:56:22.955Z,65.60
2018-12-18T16:00:26.978Z,66.29
2018-12-18T16:04:31.073Z,66.24
2018-12-18T16:08:35.192Z,66.44
2018-12-18T16:12:39.343Z,66.17
2018-12-18T16:16:43.447Z,65.89
2018-12-18T16:20:47.469Z,65.72
2018-12-18T16:24:51.459Z,65.95
2018-12-18T16:28:55.503Z,66.03
2018-12-18T16:32:59.603Z,66.15
2018-12-18T16:37:03.768Z,65.57
2018-12-18T16:41:07.694Z,65.96
2018-12-18T16:45:11.891Z,65.94
2018-12-18T16:49:16.015Z,66.06
2018-12-18T16:53:20.120Z,66.02
2018-12-18T16:57:24.138Z,66.02
2018-12-18T17:01:28.121Z,66.24
2018-12-18T17:05:32.171Z,66.49
2018-12-18T17:09:36.292Z,66.44
2018-12-18T17:13:40.295Z,66.82
2018-12-18T17:17:44.325Z,67.22
2018-12-18T17:21:48.371Z,66.66
2018-12-18T17:25:53.259Z,66.88
2018-12-18T17:29:57.343Z,66.91
2018-12-18T17:34:01.521Z,67.16
2018-12-18T17:38:05.773Z,66.43
2018-12-18T17:42:09.825Z,66.50
2018-12-18T17:46:13.866Z,67.05
2018-12-18T17:50:18.895Z,66.77
2018-12-18T17:54:23.034Z,66.47
2018-12-18T17:58:27.116Z,66.62
2018-12-18T18:02:31.148Z,66.36
2018-12-18T18:06:35.262Z,66.82
2018-12-18T18:10:39.286Z,66.30
2018-12-18T18:14:43.322Z,66.73
2018-12-18T18:18:47.364Z,66.12
2018-12-18T18:22:51.475Z,65.91
2018-12-18T18:26:56.339Z,65.77
2018-12-18T18:31:00.410Z,65.50
2018-12-18T18:35:04.863Z,65.51
2018-12-18T18:39:08.966Z,65.86
2018-12-18T18:43:12.986Z,66.18
2018-12-18T18:47:17.066Z,65.62
2018-12-18T18:51:21.102Z,65.69
2018-12-18T18:55:25.083Z,65.51
2018-12-18T18:59:29.153Z,65.39
2018-12-18T19:03:33.102Z,65.68
2018-12-18T19:07:37.097Z,65.58
2018-12-18T19:11:41.198Z,65.77
2018-12-18T19:15:45.207Z,65.47
2018-12-18T19:19:49.219Z,65.40
2018-12-18T19:23:53.240Z,65.54
2018-12-18T19:27:57.381Z,65.10
2018-12-18T19:32:01.341Z,65.35
2018-12-18T19:36:05.566Z,65.32
2018-12-18T19:40:09.775Z,65.15
2018-12-18T19:44:13.752Z,65.38
2018-12-18T19:48:18.753Z,65.70
2018-12-18T19:52:22.711Z,66.02
2018-12-18T19:56:26.839Z,66.00
2018-12-18T20:00:30.859Z,65.53
2018-12-18T20:04:34.925Z,65.44
2018-12-18T20:08:39.976Z,65.22
2018-12-18T20:12:43.925Z,65.03
2018-12-18T20:16:48.081Z,65.50
2018-12-18T20:20:52.243Z,65.42
2018-12-18T20:24:56.263Z,64.93
2018-12-18T20:29:00.288Z,65.09
2018-12-18T20:33:04.501Z,64.84
2018-12-18T20:37:08.542Z,65.40
2018-12-18T20:41:12.524Z,65.21
2018-12-18T20:45:16.631Z,64.93
2018-12-18T20:49:20.723Z,65.21
2018-12-18T20:53:24.693Z,64.96
2018-12-18T20:57:28.794Z,64.85
2018-12-18T21:01:32.842Z,64.67
2018-12-18T21:05:36.999Z,64.21
2018-12-18T21:09:41.083Z,64.33
2018-12-18T21:17:52.079Z,63.72
2018-12-18T21:21:56.291Z,64.48
2018-12-18T21:26:00.563Z,64.14
2018-12-18T21:30:05.686Z,63.55
2018-12-18T21:34:10.193Z,63.42
2018-12-18T21:38:14.527Z,63.61
2018-12-18T21:42:18.795Z,63.27
2018-12-18T21:46:22.960Z,63.61
2018-12-18T21:50:27.130Z,63.38
2018-12-18T21:55:34.662Z,63.64
2018-12-18T21:59:38.812Z,62.81
2018-12-18T22:03:42.941Z,63.23
2018-12-18T22:07:47.131Z,63.33
2018-12-18T22:11:51.367Z,63.05
2018-12-18T22:15:55.486Z,62.97
2018-12-18T22:19:59.686Z,62.35
2018-12-18T22:24:03.905Z,61.27
2018-12-18T22:28:08.130Z,61.41
2018-12-18T22:32:12.296Z,60.73
2018-12-18T22:36:16.324Z,60.93
2018-12-18T22:40:20.330Z,61.20
2018-12-18T22:44:24.403Z,60.93
2018-12-18T22:48:28.367Z,60.56
2018-12-18T22:52:32.423Z,60.67
2018-12-18T22:56:36.407Z,60.41
2018-12-18T23:00:45.610Z,60.62
2018-12-18T23:04:50.989Z,60.12
2018-12-18T23:08:55.027Z,60.20
2018-12-18T23:12:59.062Z,60.29
2018-12-18T23:17:03.014Z,60.21
2018-12-18T23:21:06.996Z,59.60
2018-12-18T23:25:10.987Z,59.52
2018-12-18T23:29:14.956Z,59.87
2018-12-18T23:33:18.999Z,59.99
2018-12-18T23:37:23.007Z,59.67
2018-12-18T23:41:27.129Z,59.80
2018-12-18T23:45:31.235Z,59.71
2018-12-18T23:49:35.313Z,59.90
2018-12-18T23:53:40.010Z,60.26
2018-12-18T23:57:44.006Z,60.07
